Time;durP1;ratioP1;P1;durP2;ratioP2;P2;SDS_P1;SDS_P2;PMS_P1;PMS_P2;Temp;Humidity;BMP_temperature;BMP_pressure;BME280_temperature;BME280_humidity;BME280_pressure;Samples;Min_cycle;Max_cycle;Signal;HPM_P1;HPM_P2
2021/03/11 00:00:35;;;;;;;3.85;2.28;;;;;;;23.61;33.98;94788.72;5030268;28;20493;-75
2021/03/11 00:03:00;;;;;;;3.03;1.73;;;;;;;23.60;34.00;94787.22;5029338;28;20037;-75
2021/03/11 00:05:26;;;;;;;3.47;1.98;;;;;;;23.61;33.69;94791.44;5030449;28;20025;-74
2021/03/11 00:07:51;;;;;;;3.10;1.90;;;;;;;23.59;33.93;94788.50;5028135;28;20413;-75
2021/03/11 00:10:17;;;;;;;2.50;1.70;;;;;;;23.57;33.81;94780.09;5030530;28;20014;-77
2021/03/11 00:12:43;;;;;;;2.70;1.75;;;;;;;23.58;33.66;94787.03;5030267;28;20051;-74
2021/03/11 00:15:15;;;;;;;3.00;1.83;;;;;;;23.58;34.08;94792.47;5029680;28;20494;-74
2021/03/11 00:17:40;;;;;;;3.03;1.73;;;;;;;23.53;33.45;94782.38;5024975;28;20432;-76
2021/03/11 00:20:16;;;;;;;2.75;1.80;;;;;;;23.55;34.05;94790.78;5029606;28;20021;-74
2021/03/11 00:22:42;;;;;;;2.55;1.77;;;;;;;23.45;33.92;94779.50;5030340;28;20128;-74
2021/03/11 00:25:08;;;;;;;2.65;1.80;;;;;;;23.53;33.80;94796.00;5030321;28;20033;-74
2021/03/11 00:27:34;;;;;;;4.35;2.10;;;;;;;23.21;34.05;94754.28;5030496;28;20037;-74
2021/03/11 00:30:00;;;;;;;2.50;1.90;;;;;;;23.50;33.65;94797.03;5028296;28;20036;-74
2021/03/11 00:32:25;;;;;;;2.78;1.85;;;;;;;23.51;33.96;94793.03;5032357;28;20016;-74
2021/03/11 00:34:51;;;;;;;3.17;1.80;;;;;;;23.49;34.13;94784.66;5055685;28;20025;-74
2021/03/11 00:37:16;;;;;;;3.08;1.98;;;;;;;23.46;33.95;94793.88;5056326;28;20017;-75
2021/03/11 00:39:42;;;;;;;2.90;1.70;;;;;;;23.48;34.19;94794.84;5054852;28;20033;-75
2021/03/11 00:42:07;;;;;;;2.88;1.80;;;;;;;23.46;33.75;94796.59;5072027;28;20040;-75
2021/03/11 00:44:33;;;;;;;2.63;1.75;;;;;;;23.31;33.87;94774.47;5055905;28;20014;-74
2021/03/11 00:46:58;;;;;;;2.40;1.75;;;;;;;23.42;33.74;94796.13;5061961;28;20060;-74
2021/03/11 00:49:24;;;;;;;2.83;1.80;;;;;;;23.40;33.80;94793.19;5037268;28;20033;-75
2021/03/11 00:51:50;;;;;;;2.67;1.80;;;;;;;23.34;34.29;94784.34;5035907;28;20038;-74
2021/03/11 00:54:15;;;;;;;3.13;2.05;;;;;;;23.40;33.89;94793.19;5037235;28;20044;-74
2021/03/11 00:56:40;;;;;;;2.67;1.63;;;;;;;23.21;34.28;94770.63;5039207;28;20055;-75
2021/03/11 00:59:06;;;;;;;2.38;1.63;;;;;;;23.39;34.07;94791.72;5039044;28;20029;-76
2021/03/11 01:01:33;;;;;;;2.92;1.88;;;;;;;23.37;33.99;94792.22;5041089;28;20032;-75
2021/03/11 01:03:59;;;;;;;2.85;1.90;;;;;;;23.36;34.05;94792.75;5041063;28;20028;-75
2021/03/11 01:06:24;;;;;;;2.58;1.70;;;;;;;23.34;34.17;94784.34;5044780;28;20034;-76
2021/03/11 01:08:50;;;;;;;2.88;1.83;;;;;;;23.35;34.04;94785.84;5045265;28;20021;-75
2021/03/11 01:11:15;;;;;;;2.35;1.80;;;;;;;23.34;34.21;94781.63;5044273;28;20041;-74
2021/03/11 01:13:40;;;;;;;3.00;1.80;;;;;;;23.33;33.98;94785.59;5035386;28;20029;-74
2021/03/11 01:16:06;;;;;;;2.78;1.77;;;;;;;23.15;33.92;94750.91;5030413;28;20029;-75
2021/03/11 01:18:31;;;;;;;2.70;1.88;;;;;;;23.32;34.06;94786.88;5013417;28;20048;-76
2021/03/11 01:20:57;;;;;;;2.70;1.88;;;;;;;23.31;34.17;94779.94;5029871;28;20030;-74
2021/03/11 01:23:22;;;;;;;2.15;1.50;;;;;;;23.19;34.05;94756.78;5030273;28;20041;-74
2021/03/11 01:25:48;;;;;;;2.92;1.85;;;;;;;23.23;34.05;94779.03;5029542;28;20469;-74
2021/03/11 01:28:13;;;;;;;2.88;1.67;;;;;;;23.31;34.15;94788.09;5029035;28;20036;-74
2021/03/11 01:30:39;;;;;;;2.22;1.55;;;;;;;23.32;34.32;94791.56;5015141;28;20029;-74
2021/03/11 01:33:04;;;;;;;3.05;1.70;;;;;;;23.28;34.28;94791.84;5030306;28;20036;-75
2021/03/11 01:35:30;;;;;;;2.42;1.52;;;;;;;23.25;33.87;94795.59;5033341;28;20024;-74
2021/03/11 01:37:55;;;;;;;2.40;1.80;;;;;;;23.22;33.98;94799.34;5033390;28;20521;-74
2021/03/11 01:40:21;;;;;;;2.83;1.77;;;;;;;23.18;34.33;94790.72;5034095;28;20029;-75
2021/03/11 01:42:46;;;;;;;2.75;1.60;;;;;;;23.15;34.37;94794.50;5063879;28;20010;-75
2021/03/11 01:45:12;;;;;;;3.17;1.85;;;;;;;23.12;34.12;94795.53;5038585;28;20042;-74
2021/03/11 01:47:38;;;;;;;2.00;1.60;;;;;;;23.13;34.26;94807.16;5031625;28;20033;-74
2021/03/11 01:50:04;;;;;;;3.08;1.65;;;;;;;23.14;34.10;94814.81;5032820;28;20083;-74
2021/03/11 01:52:30;;;;;;;3.20;1.80;;;;;;;23.13;34.35;94802.44;5032798;28;20490;-74
2021/03/11 01:54:55;;;;;;;2.30;1.60;;;;;;;23.17;33.94;94802.91;5031546;28;20025;-74
2021/03/11 01:57:21;;;;;;;2.83;1.80;;;;;;;23.00;34.14;94775.13;5031306;28;20033;-74
2021/03/11 01:59:49;;;;;;;2.10;1.60;;;;;;;23.18;34.17;94804.34;5048144;28;20029;-75
2021/03/11 02:02:18;;;;;;;2.67;1.63;;;;;;;23.18;34.34;94804.34;5048010;28;20410;-76
2021/03/11 02:04:44;;;;;;;2.78;1.60;;;;;;;23.17;34.41;94797.44;5031470;28;20095;-76
2021/03/11 02:07:09;;;;;;;2.90;1.80;;;;;;;23.17;34.18;94797.44;5033147;28;20034;-75
2021/03/11 02:09:35;;;;;;;3.15;1.92;;;;;;;23.12;33.96;94779.19;5033706;28;20025;-75
2021/03/11 02:12:25;;;;;;;2.47;1.58;;;;;;;23.16;34.19;94790.50;5032123;28;20438;-75
2021/03/11 02:15:02;;;;;;;2.85;1.70;;;;;;;23.15;34.45;94789.06;5032153;28;20025;-75
2021/03/11 02:17:30;;;;;;;2.15;1.48;;;;;;;23.01;34.37;94773.84;5014739;28;20116;-74
2021/03/11 02:20:04;;;;;;;2.42;1.60;;;;;;;23.13;33.99;94796.25;5031016;28;20075;-74
2021/03/11 02:23:06;;;;;;;2.30;1.65;;;;;;;23.13;34.32;94804.44;5031857;28;20029;-74
2021/03/11 02:25:44;;;;;;;1.77;1.40;;;;;;;23.10;34.02;94808.91;5031804;28;20048;-75
2021/03/11 02:28:21;;;;;;;2.03;1.52;;;;;;;23.11;34.30;94810.38;5031110;28;20014;-75
2021/03/11 02:30:46;;;;;;;3.10;1.70;;;;;;;23.00;34.53;94805.06;5030628;28;20567;-76
2021/03/11 02:33:12;;;;;;;2.10;1.38;;;;;;;22.99;34.28;94798.13;5030858;28;20037;-75
2021/03/11 02:35:38;;;;;;;2.63;1.70;;;;;;;22.93;34.49;94778.41;5030535;28;20033;-75
2021/03/11 02:38:03;;;;;;;2.10;1.58;;;;;;;23.11;34.15;94815.84;5030428;28;20060;-76
2021/03/11 02:40:32;;;;;;;2.45;1.60;;;;;;;23.12;34.32;94822.78;5047051;28;20025;-74
2021/03/11 02:42:58;;;;;;;2.65;1.70;;;;;;;23.13;33.96;94828.94;5031097;28;20117;-74
2021/03/11 02:45:28;;;;;;;2.33;1.60;;;;;;;23.10;34.50;94814.34;5031827;28;20105;-75
2021/03/11 02:47:54;;;;;;;2.30;1.50;;;;;;;23.10;34.01;94825.25;5031551;28;20036;-74
2021/03/11 02:50:19;;;;;;;1.90;1.35;;;;;;;23.09;34.29;94829.25;5030284;28;20415;-74
2021/03/11 02:52:45;;;;;;;2.28;1.55;;;;;;;22.95;34.51;94807.84;5029856;28;20040;-75
2021/03/11 02:55:11;;;;;;;1.95;1.48;;;;;;;23.03;34.39;94831.28;5031325;28;20037;-75
2021/03/11 02:57:37;;;;;;;2.40;1.58;;;;;;;23.09;34.16;94840.13;5029862;28;20482;-75
2021/03/11 03:00:04;;;;;;;2.55;1.92;;;;;;;23.08;34.41;94855.00;5046626;28;20033;-74
2021/03/11 03:02:30;;;;;;;2.40;1.48;;;;;;;23.08;34.20;94844.09;5031289;28;20108;-75
2021/03/11 03:04:56;;;;;;;2.67;1.70;;;;;;;23.06;34.23;94841.16;5029954;28;20025;-75
2021/03/11 03:07:21;;;;;;;2.30;1.42;;;;;;;23.09;34.21;94847.56;5030553;28;20064;-75
2021/03/11 03:09:51;;;;;;;2.00;1.40;;;;;;;22.93;33.98;94838.31;5046741;28;20034;-74
2021/03/11 03:12:17;;;;;;;2.17;1.40;;;;;;;22.88;34.41;94823.97;5029915;28;20224;-74
2021/03/11 03:14:46;;;;;;;2.13;1.65;;;;;;;23.07;34.49;94852.78;5029510;28;20108;-74
2021/03/11 03:17:14;;;;;;;2.45;1.40;;;;;;;23.07;34.36;94852.78;5030006;28;20025;-75
2021/03/11 03:19:40;;;;;;;1.98;1.50;;;;;;;22.90;34.15;94839.28;5031245;28;20033;-74
2021/03/11 03:22:06;;;;;;;2.00;1.60;;;;;;;22.75;34.05;94815.69;5030102;28;20026;-74
2021/03/11 03:24:31;;;;;;;1.98;1.60;;;;;;;23.06;34.25;94862.19;5029939;28;20033;-75
2021/03/11 03:26:57;;;;;;;2.00;1.55;;;;;;;23.06;34.32;94854.00;5030655;28;20423;-76
2021/03/11 03:29:22;;;;;;;2.72;1.60;;;;;;;22.92;34.06;94842.25;5030909;28;20414;-74
2021/03/11 03:31:47;;;;;;;2.22;1.60;;;;;;;23.03;34.16;94858.53;5030214;28;20037;-75
2021/03/11 03:34:13;;;;;;;2.28;1.50;;;;;;;23.02;34.03;94859.75;5029959;28;20025;-74
2021/03/11 03:36:38;;;;;;;2.40;1.50;;;;;;;23.06;34.04;94871.13;5031051;28;20039;-75
2021/03/11 03:39:04;;;;;;;2.10;1.40;;;;;;;23.03;34.21;94863.97;5031060;28;20029;-75
2021/03/11 03:41:29;;;;;;;2.40;1.70;;;;;;;22.99;34.07;94857.31;5031268;28;20449;-76
2021/03/11 03:43:55;;;;;;;2.38;1.58;;;;;;;23.03;34.26;94869.41;5046238;28;20026;-75
2021/03/11 03:46:24;;;;;;;2.22;1.50;;;;;;;22.88;34.16;94851.22;5030794;28;20084;-75
2021/03/11 03:49:00;;;;;;;2.10;1.45;;;;;;;23.03;33.96;94872.13;5029361;28;20431;-75
2021/03/11 03:51:32;;;;;;;1.63;1.23;;;;;;;23.02;34.29;94867.94;5031009;28;20080;-76
2021/03/11 03:54:10;;;;;;;1.90;1.55;;;;;;;23.02;34.05;94867.94;5046046;28;20418;-75
2021/03/11 03:56:38;;;;;;;2.20;1.55;;;;;;;23.03;34.16;94874.84;5045387;28;20032;-75
2021/03/11 03:59:06;;;;;;;2.53;1.70;;;;;;;23.02;34.20;94876.09;5046148;28;20507;-75
2021/03/11 04:01:34;;;;;;;1.85;1.30;;;;;;;23.03;34.29;94879.56;5046795;28;20473;-74
2021/03/11 04:03:59;;;;;;;2.08;1.55;;;;;;;23.01;34.21;94871.88;5029917;28;20438;-74
2021/03/11 04:06:25;;;;;;;1.98;1.30;;;;;;;23.00;34.45;94875.88;5029839;28;20044;-74
2021/03/11 04:08:50;;;;;;;2.35;1.50;;;;;;;22.97;34.39;94871.44;5013364;28;20036;-75
2021/03/11 04:11:17;;;;;;;2.03;1.60;;;;;;;23.01;34.04;94877.34;5030774;28;20045;-75
2021/03/11 04:13:43;;;;;;;2.58;1.40;;;;;;;22.99;34.19;94874.38;5029926;28;20040;-74
2021/03/11 04:16:08;;;;;;;2.63;1.48;;;;;;;23.01;34.47;94882.78;5027726;28;20029;-74
2021/03/11 04:18:34;;;;;;;1.85;1.50;;;;;;;22.86;34.44;94859.16;5046165;28;20037;-75
2021/03/11 04:21:00;;;;;;;2.42;1.30;;;;;;;23.01;34.35;94882.78;5016755;28;20025;-74
2021/03/11 04:23:25;;;;;;;2.00;1.30;;;;;;;22.99;33.72;94890.72;5018370;28;20410;-74
2021/03/11 04:25:50;;;;;;;2.70;1.30;;;;;;;23.00;34.05;94897.66;5015080;28;20063;-74
2021/03/11 04:28:16;;;;;;;1.95;1.40;;;;;;;22.99;34.24;94896.19;5045215;28;20098;-75
2021/03/11 04:30:42;;;;;;;2.10;1.30;;;;;;;22.97;34.24;94897.94;5019635;28;20030;-75
2021/03/11 04:33:07;;;;;;;1.77;1.20;;;;;;;22.78;34.27;94871.84;5010665;28;20022;-81
2021/03/11 04:35:32;;;;;;;1.88;1.38;;;;;;;22.93;34.50;94906.38;5038885;28;20417;-73
2021/03/11 04:37:58;;;;;;;2.38;1.60;;;;;;;22.93;34.48;94908.34;5042661;28;20599;-72
2021/03/11 04:40:23;;;;;;;2.10;1.38;;;;;;;22.91;34.48;94906.13;5037399;28;20517;-73
2021/03/11 04:42:49;;;;;;;2.00;1.25;;;;;;;22.80;34.20;94886.41;5026391;28;20044;-77
2021/03/11 04:45:14;;;;;;;2.78;1.30;;;;;;;22.79;34.34;94887.66;5027770;28;20028;-73
2021/03/11 04:47:40;;;;;;;1.67;1.30;;;;;;;22.85;34.10;94884.91;5021779;28;20036;-72
2021/03/11 04:50:06;;;;;;;1.90;1.27;;;;;;;23.07;34.28;94918.16;5039267;28;20025;-75
2021/03/11 04:52:32;;;;;;;1.85;1.25;;;;;;;23.10;34.02;94917.13;5053493;28;20028;-71
2021/03/11 04:54:58;;;;;;;1.83;1.30;;;;;;;23.19;34.10;94920.25;5031042;28;20037;-76
2021/03/11 04:57:24;;;;;;;2.03;1.42;;;;;;;23.08;34.24;94903.28;5051898;28;20554;-75
2021/03/11 04:59:50;;;;;;;2.25;1.50;;;;;;;23.04;33.89;94895.38;5043391;28;20086;-72
2021/03/11 05:02:15;;;;;;;1.50;1.30;;;;;;;23.09;34.00;94889.16;5021567;28;20079;-73
2021/03/11 05:04:44;;;;;;;1.90;1.40;;;;;;;23.46;34.04;94932.84;5059032;28;20144;-75
2021/03/11 05:07:09;;;;;;;1.65;1.10;;;;;;;23.48;33.96;94933.06;5037423;28;20414;-75
2021/03/11 05:09:35;;;;;;;2.08;1.40;;;;;;;23.60;33.54;94937.16;5044115;28;20025;-76
2021/03/11 05:12:00;;;;;;;1.67;1.30;;;;;;;23.55;33.22;94927.06;5042639;28;20176;-78
2021/03/11 05:14:25;;;;;;;2.30;1.13;;;;;;;23.81;33.26;94946.38;5018438;28;20421;-75
2021/03/11 05:16:51;;;;;;;2.47;1.33;;;;;;;23.86;33.19;94943.59;5031253;28;20468;-78
2021/03/11 05:19:16;;;;;;;1.42;1.10;;;;;;;23.97;32.85;94946.19;5036707;28;20112;-75
2021/03/11 05:21:42;;;;;;;1.77;1.20;;;;;;;23.85;32.76;94914.09;5041190;28;20025;-75
2021/03/11 05:24:08;;;;;;;1.77;1.20;;;;;;;24.14;32.55;94939.28;5041365;28;20079;-75
2021/03/11 05:26:33;;;;;;;1.48;1.20;;;;;;;24.23;32.64;94940.88;5058620;28;20018;-75
2021/03/11 05:28:59;;;;;;;2.03;1.30;;;;;;;24.08;32.49;94911.31;5039992;28;20052;-74
2021/03/11 05:31:24;;;;;;;2.00;1.15;;;;;;;24.39;32.42;94951.59;5043827;28;20139;-75
2021/03/11 05:33:50;;;;;;;1.60;1.17;;;;;;;24.45;32.09;94957.72;5026724;28;20033;-74
2021/03/11 05:36:15;;;;;;;1.75;1.15;;;;;;;24.51;32.39;94963.84;5031548;28;20062;-71
2021/03/11 05:38:45;;;;;;;1.60;1.20;;;;;;;24.46;31.94;94942.84;4999880;28;20041;-76
2021/03/11 05:41:11;;;;;;;1.45;1.10;;;;;;;24.62;32.25;94952.75;5042975;28;20449;-73
2021/03/11 05:43:37;;;;;;;2.28;1.23;;;;;;;24.41;32.12;94921.81;5045337;28;20030;-73
2021/03/11 05:46:02;;;;;;;1.27;0.90;;;;;;;24.77;31.58;94969.41;5043964;28;20047;-71
2021/03/11 05:48:28;;;;;;;1.45;1.23;;;;;;;24.75;31.64;94961.03;5061931;28;20055;-81
2021/03/11 05:50:53;;;;;;;1.63;1.00;;;;;;;24.81;31.56;94958.94;5029105;28;20019;-82
2021/03/11 05:53:19;;;;;;;3.33;1.17;;;;;;;24.99;31.38;94976.06;5025259;28;20033;-72
2021/03/11 05:55:44;;;;;;;2.25;1.30;;;;;;;24.84;31.53;94959.38;5043686;28;20029;-74
2021/03/11 05:58:10;;;;;;;1.55;1.10;;;;;;;25.10;31.30;94989.56;5042759;28;20029;-74
2021/03/11 06:00:35;;;;;;;1.88;1.33;;;;;;;25.16;31.34;94990.19;5035011;28;20029;-74
2021/03/11 06:03:01;;;;;;;55.05;7.97;;;;;;;25.09;24.29;94987.34;5053482;28;20020;-74
2021/03/11 06:05:26;;;;;;;13.55;2.38;;;;;;;24.81;28.88;94997.19;5036769;28;20053;-78
2021/03/11 06:07:52;;;;;;;9.15;1.90;;;;;;;24.87;30.16;94996.59;5035382;28;20029;-79
2021/03/11 06:10:19;;;;;;;5.75;1.50;;;;;;;24.93;30.75;95005.44;5039152;28;20682;-75
2021/03/11 06:12:44;;;;;;;4.70;1.50;;;;;;;25.04;30.99;95010.03;5039065;28;20558;-77
2021/03/11 06:15:11;;;;;;;6.05;1.83;;;;;;;25.11;30.63;95021.09;5060761;28;20021;-78
2021/03/11 06:17:37;;;;;;;5.35;1.35;;;;;;;25.17;30.64;95021.75;5041054;28;20033;-75
2021/03/11 06:20:03;;;;;;;6.80;2.03;;;;;;;25.18;31.14;95023.22;5062594;28;20115;-77
2021/03/11 06:22:29;;;;;;;3.65;1.40;;;;;;;25.25;30.58;95036.28;5041771;28;20476;-76
2021/03/11 06:24:54;;;;;;;3.70;1.13;;;;;;;25.14;31.25;95022.78;5045437;28;20029;-76
2021/03/11 06:27:21;;;;;;;3.78;1.30;;;;;;;25.26;30.93;95048.69;5023067;28;20072;-78
2021/03/11 06:29:46;;;;;;;11.07;1.85;;;;;;;25.39;30.76;95045.97;5040142;28;20032;-78
2021/03/11 06:32:11;;;;;;;2.95;1.30;;;;;;;25.35;29.31;95048.28;5035911;28;20030;-80
2021/03/11 06:34:39;;;;;;;2.70;1.33;;;;;;;25.36;30.50;95052.50;5040531;28;20040;-80
2021/03/11 06:37:06;;;;;;;3.83;1.38;;;;;;;25.30;29.42;95065.50;5039192;28;20029;-81
2021/03/11 06:39:32;;;;;;;7.45;1.75;;;;;;;25.32;28.57;95069.22;5042182;28;20037;-75
2021/03/11 06:41:58;;;;;;;3.63;1.52;;;;;;;25.10;27.80;95074.28;5039678;28;20607;-77
2021/03/11 06:44:43;;;;;;;4.07;1.92;;;;;;;24.82;26.43;95082.06;5040147;28;20108;-74
2021/03/11 06:47:11;;;;;;;2.97;1.30;;;;;;;24.78;27.93;95091.09;5028213;28;20040;-73
2021/03/11 06:49:55;;;;;;;4.03;1.60;;;;;;;24.81;29.88;95079.13;5041957;28;20025;-77
2021/03/11 06:52:20;;;;;;;2.53;1.15;;;;;;;25.05;30.09;95105.16;5038707;28;20024;-75
2021/03/11 06:55:00;;;;;;;2.40;0.90;;;;;;;25.07;30.19;95086.22;5037607;28;20026;-78
2021/03/11 06:57:33;;;;;;;1.90;1.00;;;;;;;25.14;29.69;95091.13;5029642;28;20026;-78
2021/03/11 07:00:00;;;;;;;2.30;1.55;;;;;;;25.10;29.40;95085.19;5004888;28;20026;-75
2021/03/11 07:02:27;;;;;;;4.53;1.58;;;;;;;25.35;30.04;95117.38;5032913;28;20026;-72
2021/03/11 07:04:53;;;;;;;1.58;0.90;;;;;;;25.39;30.08;95106.13;5045815;28;20029;-72
2021/03/11 07:07:20;;;;;;;3.80;1.13;;;;;;;25.48;29.95;95108.47;5031549;28;20044;-80
2021/03/11 07:09:49;;;;;;;1.77;1.17;;;;;;;25.55;30.12;95108.63;5043267;28;20053;-80
2021/03/11 07:12:15;;;;;;;2.65;1.02;;;;;;;25.58;30.06;95106.84;5024521;28;20561;-81
2021/03/11 07:14:40;;;;;;;2.67;1.00;;;;;;;25.44;30.07;95078.72;5038097;28;20025;-77
2021/03/11 07:17:24;;;;;;;2.83;1.20;;;;;;;25.70;30.06;95102.69;5024816;28;20386;-80
2021/03/11 07:20:06;;;;;;;2.05;0.90;;;;;;;25.75;30.10;95116.28;5033152;28;20013;-74
2021/03/11 07:22:32;;;;;;;1.88;1.00;;;;;;;25.75;30.11;95115.53;5031248;28;20125;-75
2021/03/11 07:24:57;;;;;;;3.17;0.98;;;;;;;25.74;28.01;95130.47;5035731;28;20509;-75
2021/03/11 07:27:23;;;;;;;2.25;1.08;;;;;;;25.75;29.31;95142.91;5027001;28;20013;-78
2021/03/11 07:30:01;;;;;;;2.78;0.90;;;;;;;25.79;29.40;95137.88;5034551;28;20067;-79
2021/03/11 07:32:27;;;;;;;4.13;1.00;;;;;;;25.86;29.63;95138.72;5035404;28;20033;-77
2021/03/11 07:34:52;;;;;;;1.58;0.95;;;;;;;25.91;29.48;95140.63;5037375;28;20032;-77
2021/03/11 07:37:18;;;;;;;1.52;0.85;;;;;;;25.89;29.60;95137.69;5041700;28;20022;-77
2021/03/11 07:39:43;;;;;;;2.78;0.88;;;;;;;25.98;29.65;95140.03;5020982;28;20037;-75
2021/03/11 07:42:09;;;;;;;2.25;1.10;;;;;;;25.97;29.50;95144.00;5039317;28;20065;-74
2021/03/11 07:44:35;;;;;;;2.50;1.00;;;;;;;25.99;28.91;95157.94;5038489;28;20521;-74
2021/03/11 07:47:00;;;;;;;2.25;0.93;;;;;;;25.98;29.45;95156.44;5027074;28;20115;-74
2021/03/11 07:49:26;;;;;;;2.53;0.93;;;;;;;25.85;29.22;95139.25;5032496;28;20030;-72
2021/03/11 07:51:52;;;;;;;2.33;1.00;;;;;;;26.03;29.51;95163.81;5035235;28;20090;-72
2021/03/11 07:54:18;;;;;;;2.83;1.02;;;;;;;26.03;29.31;95171.28;5041649;28;20456;-72
2021/03/11 07:56:43;;;;;;;1.90;1.10;;;;;;;25.82;29.64;95148.50;5040971;28;20120;-73
2021/03/11 07:59:08;;;;;;;3.03;1.00;;;;;;;25.78;29.02;95150.06;5027681;28;20021;-72
2021/03/11 08:01:37;;;;;;;2.35;1.00;;;;;;;25.71;29.19;95142.47;5026959;28;20022;-72
2021/03/11 08:04:02;;;;;;;1.75;1.00;;;;;;;25.88;29.44;95179.97;5017195;28;20104;-73
2021/03/11 08:06:29;;;;;;;2.25;1.02;;;;;;;25.83;29.34;95178.06;5032407;28;20108;-72
2021/03/11 08:08:55;;;;;;;1.73;1.23;;;;;;;25.79;29.26;95180.38;5028699;28;20022;-72
2021/03/11 08:11:41;;;;;;;1.52;0.80;;;;;;;25.71;29.52;95191.69;5030667;28;20099;-71
2021/03/11 08:14:23;;;;;;;1.23;0.75;;;;;;;25.70;29.62;95201.19;5041237;28;20483;-71
2021/03/11 08:16:49;;;;;;;1.95;1.30;;;;;;;25.65;29.70;95199.25;5024678;28;20029;-70
2021/03/11 08:19:36;;;;;;;1.75;1.17;;;;;;;25.61;29.92;95204.25;5026855;28;20033;-72
2021/03/11 08:22:05;;;;;;;2.95;1.30;;;;;;;25.57;29.72;95201.09;5029239;28;20026;-71
2021/03/11 08:24:59;;;;;;;1.80;1.40;;;;;;;25.42;29.72;95198.06;5029125;28;20029;-71
2021/03/11 08:27:31;;;;;;;2.55;1.10;;;;;;;25.41;29.97;95202.03;5028578;28;20048;-71
2021/03/11 08:29:57;;;;;;;2.13;1.38;;;;;;;25.34;30.11;95208.13;5028850;28;20036;-72
2021/03/11 08:32:52;;;;;;;1.95;1.50;;;;;;;25.28;29.90;95210.19;5028598;28;20029;-70
2021/03/11 08:35:27;;;;;;;3.58;1.23;;;;;;;25.24;29.93;95214.47;5027510;28;20064;-72
2021/03/11 08:37:53;;;;;;;1.70;1.10;;;;;;;25.19;30.33;95213.28;5037685;28;20021;-70
2021/03/11 08:40:45;;;;;;;1.95;1.05;;;;;;;25.12;30.28;95221.31;5061496;28;20057;-72
2021/03/11 08:43:10;;;;;;;2.15;1.33;;;;;;;24.94;29.96;95192.69;5024851;28;20056;-71
2021/03/11 08:45:39;;;;;;;1.83;1.30;;;;;;;25.03;30.40;95216.22;5039760;28;20494;-71
2021/03/11 08:48:14;;;;;;;1.85;1.30;;;;;;;24.98;30.23;95215.00;5028443;28;20033;-72
2021/03/11 08:50:43;;;;;;;2.83;1.27;;;;;;;24.94;30.12;95214.53;5039773;28;20072;-73
2021/03/11 08:53:09;;;;;;;2.67;1.55;;;;;;;24.94;30.46;95209.06;5031218;28;20021;-71
2021/03/11 08:55:36;;;;;;;2.00;1.35;;;;;;;24.89;30.83;95218.09;5044868;28;20033;-71
2021/03/11 08:58:02;;;;;;;2.10;1.40;;;;;;;24.88;30.77;95224.06;5057137;28;20070;-72
2021/03/11 09:01:05;;;;;;;2.70;1.58;;;;;;;24.81;30.51;95226.63;5044387;28;20422;-71
2021/03/11 09:03:50;;;;;;;2.45;1.50;;;;;;;24.78;31.00;95233.84;4993730;28;20133;-72
2021/03/11 09:06:17;;;;;;;2.10;1.50;;;;;;;24.73;30.79;95220.28;5003082;28;20030;-72
2021/03/11 09:08:52;;;;;;;2.85;1.48;;;;;;;24.71;31.05;95233.69;5015087;28;20045;-72
2021/03/11 09:11:21;;;;;;;2.10;1.13;;;;;;;24.68;31.13;95230.00;5034161;28;20143;-72
2021/03/11 09:13:48;;;;;;;2.65;1.50;;;;;;;24.53;31.13;95218.00;5056791;28;20037;-72
2021/03/11 09:16:14;;;;;;;1.90;1.40;;;;;;;24.64;31.30;95235.00;5039431;28;20026;-73
2021/03/11 09:18:39;;;;;;;2.53;1.70;;;;;;;24.61;31.50;95241.47;5053979;28;20497;-72
2021/03/11 09:21:08;;;;;;;2.78;1.33;;;;;;;24.59;31.03;95251.47;5044043;28;20560;-72
2021/03/11 09:23:43;;;;;;;2.03;1.30;;;;;;;24.57;31.33;95262.13;5041423;28;20028;-73
2021/03/11 09:26:28;;;;;;;2.20;1.35;;;;;;;24.54;31.56;95253.00;5046418;28;20032;-71
2021/03/11 09:28:53;;;;;;;2.00;1.40;;;;;;;24.43;31.07;95246.88;5038067;28;20115;-71
2021/03/11 09:31:27;;;;;;;2.15;1.20;;;;;;;24.45;31.29;95260.75;5057499;28;20041;-72
2021/03/11 09:33:53;;;;;;;1.88;1.10;;;;;;;24.47;31.35;95263.72;5029188;28;20029;-72
2021/03/11 09:36:19;;;;;;;2.35;1.27;;;;;;;24.44;31.70;95259.28;5053960;28;20040;-71
2021/03/11 09:38:44;;;;;;;2.15;1.33;;;;;;;24.40;31.10;95264.28;5029958;28;20018;-72
2021/03/11 09:41:10;;;;;;;2.00;1.20;;;;;;;24.25;31.73;95233.84;5033042;28;20009;-71
2021/03/11 09:43:36;;;;;;;2.20;1.30;;;;;;;24.21;31.40;95236.13;5052754;28;20563;-72
2021/03/11 09:46:15;;;;;;;1.90;1.27;;;;;;;24.34;31.58;95267.03;5046314;28;20021;-72
2021/03/11 09:48:45;;;;;;;1.92;1.13;;;;;;;24.33;31.22;95264.81;5031838;28;20029;-71
2021/03/11 09:51:14;;;;;;;;;;;;;;;24.30;31.60;95265.81;5041430;28;20020;-72
2021/03/11 09:53:59;;;;;;;2.65;1.40;;;;;;;24.30;31.80;95260.34;5034642;28;19971;-71
2021/03/11 09:56:38;;;;;;;2.92;1.25;;;;;;;24.29;31.32;95269.81;5039039;28;20571;-71
2021/03/11 09:59:08;;;;;;;2.50;1.33;;;;;;;24.25;31.51;95269.34;5042444;28;20021;-71
2021/03/11 10:01:36;;;;;;;;;;;;;;;24.24;31.66;95270.56;5043066;28;20079;-71
2021/03/11 10:04:31;;;;;;;2.50;1.60;;;;;;;24.22;31.87;95275.81;5030381;28;19919;-74
2021/03/11 10:06:59;;;;;;;2.78;1.65;;;;;;;24.20;31.79;95283.03;5032094;28;20030;-71
2021/03/11 10:09:25;;;;;;;2.33;1.52;;;;;;;24.18;31.93;95278.06;4967147;28;20046;-70
2021/03/11 10:11:53;;;;;;;2.80;2.00;;;;;;;24.19;32.14;95282.28;5042270;28;20067;-70
2021/03/11 10:14:22;;;;;;;2.15;1.38;;;;;;;24.18;31.90;95286.25;5038168;28;20037;-70
2021/03/11 10:16:49;;;;;;;2.30;1.90;;;;;;;24.17;32.33;95284.78;5036129;28;20183;-71
2021/03/11 10:19:19;;;;;;;1.98;1.30;;;;;;;24.21;32.19;95290.69;5030408;28;20383;-71
2021/03/11 10:21:57;;;;;;;2.38;1.52;;;;;;;24.25;31.69;95291.16;5043393;28;20071;-71
2021/03/11 10:24:32;;;;;;;3.67;1.70;;;;;;;24.28;31.93;95290.16;5014797;28;20044;-73
2021/03/11 10:26:57;;;;;;;2.47;1.40;;;;;;;24.16;32.13;95272.38;5043623;28;20064;-72
2021/03/11 10:29:28;;;;;;;2.30;1.70;;;;;;;24.42;31.84;95300.00;5041913;28;20041;-72
2021/03/11 10:32:05;;;;;;;2.80;1.30;;;;;;;24.49;31.84;95304.91;5058836;28;20099;-72
2021/03/11 10:34:31;;;;;;;2.35;1.60;;;;;;;24.55;31.41;95319.25;5033534;28;20016;-71
2021/03/11 10:36:58;;;;;;;2.40;1.30;;;;;;;24.61;31.64;95317.22;5053641;28;20419;-73
2021/03/11 10:39:24;;;;;;;2.15;1.40;;;;;;;24.54;31.13;95312.31;5039524;28;20029;-74
2021/03/11 10:42:04;;;;;;;4.22;1.67;;;;;;;24.76;31.39;95328.50;5042246;28;20018;-72
2021/03/11 10:44:30;;;;;;;2.22;1.33;;;;;;;24.87;30.95;95329.13;5039631;28;20028;-72
2021/03/11 10:47:16;;;;;;;2.53;1.30;;;;;;;24.95;31.26;95328.06;5057007;28;20029;-73
2021/03/11 10:49:42;;;;;;;2.17;1.40;;;;;;;25.02;30.68;95335.72;5029650;28;20021;-73
2021/03/11 10:52:07;;;;;;;2.63;1.40;;;;;;;25.07;31.11;95334.91;5027508;28;20116;-75
2021/03/11 10:54:33;;;;;;;7.10;1.80;;;;;;;24.95;31.64;95308.94;5027661;28;20399;-73
2021/03/11 10:57:24;;;;;;;2.78;1.50;;;;;;;25.16;31.30;95337.31;5028946;28;20025;-74
2021/03/11 10:59:50;;;;;;;2.78;1.50;;;;;;;25.24;31.33;95335.47;5028129;28;20037;-74
2021/03/11 11:02:16;;;;;;;2.22;1.50;;;;;;;25.18;31.39;95321.13;5026842;28;20208;-74
2021/03/11 11:04:41;;;;;;;1.98;1.20;;;;;;;25.34;31.81;95344.81;5038883;28;20082;-72
2021/03/11 11:07:07;;;;;;;2.75;1.38;;;;;;;25.38;31.44;95345.25;5028329;28;20550;-72
2021/03/11 11:09:33;;;;;;;2.20;1.20;;;;;;;25.49;31.01;95345.16;5027632;28;20027;-75
2021/03/11 11:11:58;;;;;;;4.28;1.65;;;;;;;25.54;30.88;95341.59;5028447;28;20038;-74
2021/03/11 11:14:24;;;;;;;2.72;1.65;;;;;;;25.60;30.96;95339.53;5029917;28;20037;-76
2021/03/11 11:16:49;;;;;;;2.50;1.30;;;;;;;25.55;31.21;95326.69;5030212;28;20029;-82
2021/03/11 11:19:14;;;;;;;2.30;1.50;;;;;;;25.65;31.13;95330.53;5029497;28;20022;-75
2021/03/11 11:21:40;;;;;;;1.90;1.60;;;;;;;25.71;30.94;95331.22;5029576;28;20021;-72
2021/03/11 11:24:05;;;;;;;4.07;2.03;;;;;;;25.76;30.69;95328.41;5032451;28;20026;-74
2021/03/11 11:26:31;;;;;;;1.98;1.48;;;;;;;25.82;30.94;95340.75;5044941;28;20417;-78
2021/03/11 11:28:56;;;;;;;2.80;1.55;;;;;;;25.87;30.79;95342.69;5027538;28;20025;-75
2021/03/11 11:31:22;;;;;;;2.80;1.60;;;;;;;25.88;31.02;95333.22;5030478;28;20033;-74
2021/03/11 11:33:47;;;;;;;3.25;1.55;;;;;;;25.93;30.87;95329.69;5021654;28;20071;-73
2021/03/11 11:36:13;;;;;;;2.78;1.58;;;;;;;26.02;30.66;95332.03;5043291;28;20028;-73
2021/03/11 11:38:38;;;;;;;2.58;1.52;;;;;;;26.06;30.42;95327.00;5034300;28;20025;-75